Time;durP1;ratioP1;P1;durP2;ratioP2;P2;SDS_P1;SDS_P2;PMS_P1;PMS_P2;Temp;Humidity;BMP_temperature;BMP_pressure;BME280_temperature;BME280_humidity;BME280_pressure;Samples;Min_cycle;Max_cycle;Signal;HPM_P1;HPM_P2
2022/05/23 00:01:01;;;;;;;3.72;1.70;;;;;;;;;;5021132;28;20040;-59
2022/05/23 00:07:00;;;;;;;2.97;2.00;;;;;;;;;;4929434;28;20509;-60
2022/05/23 00:09:31;;;;;;;3.92;1.80;;;;;;;;;;5017827;28;20265;-59
2022/05/23 00:12:28;;;;;;;2.15;0.95;;;;;;;;;;5022868;28;20041;-59
2022/05/23 00:15:20;;;;;;;2.92;1.73;;;;;;;;;;5023511;28;20045;-59
2022/05/23 00:18:12;;;;;;;2.83;1.52;;;;;;;;;;5022912;28;20025;-59
2022/05/23 00:26:49;;;;;;;3.08;1.98;;;;;;;;;;4998745;28;20026;-59
2022/05/23 00:35:36;;;;;;;2.85;1.75;;;;;;;;;;5047548;28;20088;-59
2022/05/23 00:38:06;;;;;;;2.47;1.45;;;;;;;;;;5042456;28;20026;-59
2022/05/23 00:40:44;;;;;;;2.35;1.60;;;;;;;;;;5047781;28;20021;-59
2022/05/23 00:44:01;;;;;;;;;;;;;;;;;;;;;
2022/05/23 00:47:04;;;;;;;2.75;1.85;;;;;;;;;;5029917;28;20121;-59
2022/05/23 00:50:04;;;;;;;2.92;1.70;;;;;;;;;;5014269;28;20461;-59
2022/05/23 00:52:49;;;;;;;3.10;1.90;;;;;;;;;;5045704;28;20029;-59
2022/05/23 00:55:52;;;;;;;;;;;;;;;;;;;;;
2022/05/23 00:58:31;;;;;;;4.07;1.65;;;;;;;;;;5029613;28;20121;-59
2022/05/23 01:01:32;;;;;;;4.72;1.38;;;;;;;;;;5019121;28;20053;-59
2022/05/23 01:04:00;;;;;;;2.50;2.00;;;;;;;;;;5046634;28;20049;-59
2022/05/23 01:07:08;;;;;;;;;;;;;;;;;;;;;
2022/05/23 01:09:48;;;;;;;9.65;1.80;;;;;;;;;;5046935;28;20081;-59
2022/05/23 01:12:43;;;;;;;2.33;1.50;;;;;;;;;;5047463;28;20056;-59
2022/05/23 01:15:32;;;;;;;2.95;1.50;;;;;;;;;;5047347;28;20033;-59
2022/05/23 01:21:05;;;;;;;2.72;1.67;;;;;;;;;;5043551;28;20033;-59
2022/05/23 01:23:37;;;;;;;2.03;1.45;;;;;;;;;;5064722;28;20037;-59
2022/05/23 01:26:15;;;;;;;3.05;1.95;;;;;;;;;;5063697;28;20037;-59
2022/05/23 01:28:56;;;;;;;3.28;1.90;;;;;;;;;;5044886;28;20091;-59
2022/05/23 01:34:50;;;;;;;2.95;1.73;;;;;;;;;;5042287;28;20036;-59
2022/05/23 01:37:34;;;;;;;3.72;1.92;;;;;;;;;;5052190;28;20040;-59
2022/05/23 01:43:27;;;;;;;;;;;;;;;;;;;;;
2022/05/23 01:46:09;;;;;;;3.40;1.98;;;;;;;;;;5064780;28;20148;-59
2022/05/23 01:48:53;;;;;;;3.22;1.50;;;;;;;;;;5063795;28;20033;-59
2022/05/23 01:52:07;;;;;;;2.25;1.60;;;;;;;;;;5064864;28;20021;-59
2022/05/23 01:54:56;;;;;;;4.10;1.98;;;;;;;;;;5055632;28;20527;-59
2022/05/23 01:57:38;;;;;;;2.35;1.67;;;;;;;;;;5024734;28;20029;-59
2022/05/23 02:03:41;;;;;;;2.65;1.45;;;;;;;;;;5025289;28;20602;-59
2022/05/23 02:06:34;;;;;;;3.78;2.20;;;;;;;;;;5008558;28;20050;-59
2022/05/23 02:09:13;;;;;;;3.05;1.67;;;;;;;;;;5036533;28;20057;-59
2022/05/23 02:14:43;;;;;;;2.97;1.65;;;;;;;;;;5046243;28;20045;-59
2022/05/23 02:17:26;;;;;;;3.55;1.92;;;;;;;;;;5046602;28;20415;-59
2022/05/23 02:20:18;;;;;;;2.60;1.70;;;;;;;;;;5045937;28;20088;-59
2022/05/23 02:23:03;;;;;;;4.63;1.95;;;;;;;;;;5046291;28;20049;-59
2022/05/23 02:25:42;;;;;;;2.53;1.52;;;;;;;;;;5045562;28;20040;-59
2022/05/23 02:31:21;;;;;;;2.65;1.63;;;;;;;;;;5010510;28;20029;-59
2022/05/23 02:34:24;;;;;;;;;;;;;;;;;;;;;
2022/05/23 02:37:03;;;;;;;5.32;1.80;;;;;;;;;;5024784;28;20090;-59
2022/05/23 02:39:36;;;;;;;2.47;1.60;;;;;;;;;;5025437;28;20093;-59
2022/05/23 02:42:11;;;;;;;3.03;1.88;;;;;;;;;;5026215;28;20025;-59
2022/05/23 02:45:09;;;;;;;;;;;;;;;;;;;;;
2022/05/23 02:47:44;;;;;;;3.35;1.70;;;;;;;;;;5026887;28;20050;-59
2022/05/23 02:50:23;;;;;;;3.08;1.70;;;;;;;;;;5026147;28;20411;-59
2022/05/23 02:57:03;;;;;;;2.33;1.63;;;;;;;;;;4981617;28;20026;-59
2022/05/23 03:00:10;;;;;;;3.50;2.30;;;;;;;;;;4965332;28;20037;-59
2022/05/23 03:03:20;;;;;;;3.38;1.88;;;;;;;;;;5025896;28;20026;-59
2022/05/23 03:08:51;;;;;;;2.38;1.50;;;;;;;;;;5025590;28;20054;-59
2022/05/23 03:11:21;;;;;;;2.55;1.80;;;;;;;;;;5019386;28;20088;-59
2022/05/23 03:20:41;;;;;;;2.75;1.85;;;;;;;;;;4971984;28;20471;-59
2022/05/23 03:29:21;;;;;;;3.17;1.85;;;;;;;;;;4998878;28;20293;-59
2022/05/23 03:32:18;;;;;;;3.95;1.90;;;;;;;;;;4997155;28;20188;-59
2022/05/23 03:35:11;;;;;;;3.83;1.75;;;;;;;;;;5004419;28;20501;-59
2022/05/23 03:37:59;;;;;;;2.88;1.60;;;;;;;;;;5033298;28;20033;-59
2022/05/23 03:46:32;;;;;;;5.05;2.08;;;;;;;;;;5034456;28;19959;-59
2022/05/23 03:52:23;;;;;;;3.35;2.17;;;;;;;;;;5026532;28;20116;-59
2022/05/23 03:55:01;;;;;;;2.67;1.88;;;;;;;;;;5016654;28;20669;-59
2022/05/23 04:00:50;;;;;;;2.22;1.48;;;;;;;;;;5034282;28;19912;-59
2022/05/23 04:03:46;;;;;;;3.13;2.00;;;;;;;;;;4992286;28;20058;-58
2022/05/23 04:09:26;;;;;;;3.30;2.00;;;;;;;;;;4975554;28;20088;-59
2022/05/23 04:12:03;;;;;;;2.63;1.65;;;;;;;;;;4983233;28;20030;-59
2022/05/23 04:14:35;;;;;;;3.83;1.85;;;;;;;;;;5034384;28;20025;-59
2022/05/23 04:17:24;;;;;;;4.70;2.38;;;;;;;;;;5034121;28;20541;-58
2022/05/23 04:20:16;;;;;;;3.47;2.07;;;;;;;;;;5050003;28;20533;-59
2022/05/23 04:22:44;;;;;;;;;;;;;;;;;;5034943;28;20030;-59
2022/05/23 04:25:39;;;;;;;3.35;2.03;;;;;;;;;;5033604;28;19913;-59
2022/05/23 04:31:14;;;;;;;10.13;2.22;;;;;;;;;;5013005;28;20368;-60
2022/05/23 04:39:34;;;;;;;2.33;1.30;;;;;;;;;;5034026;28;20501;-59
2022/05/23 04:42:21;;;;;;;2.40;1.50;;;;;;;;;;5034346;28;20056;-59
2022/05/23 04:50:52;;;;;;;4.30;1.30;;;;;;;;;;4991342;28;20040;-59
2022/05/23 04:53:28;;;;;;;6.35;1.42;;;;;;;;;;5049814;28;20029;-59
2022/05/23 04:56:21;;;;;;;3.80;1.65;;;;;;;;;;5033897;28;20372;-59
2022/05/23 04:59:11;;;;;;;2.67;1.50;;;;;;;;;;5033935;28;20026;-59
2022/05/23 05:02:01;;;;;;;1.90;1.35;;;;;;;;;;5046525;28;20037;-60
2022/05/23 05:04:38;;;;;;;;;;;;;;;;;;;;;
2022/05/23 05:07:23;;;;;;;3.53;1.95;;;;;;;;;;5036129;28;20128;-60
2022/05/23 05:10:10;;;;;;;5.43;2.08;;;;;;;;;;5037607;28;20045;-59
2022/05/23 05:13:50;;;;;;;3.42;2.03;;;;;;;;;;5038208;28;20033;-60
2022/05/23 05:16:33;;;;;;;4.00;2.13;;;;;;;;;;4991884;28;20121;-60
2022/05/23 05:19:42;;;;;;;3.28;1.95;;;;;;;;;;4983776;28;20039;-60
2022/05/23 05:25:16;;;;;;;4.13;1.92;;;;;;;;;;5030074;28;20431;-60
2022/05/23 05:28:16;;;;;;;2.05;1.58;;;;;;;;;;5030890;28;20049;-60
2022/05/23 05:31:14;;;;;;;4.15;2.72;;;;;;;;;;5020090;28;20041;-59
2022/05/23 05:37:00;;;;;;;2.97;2.20;;;;;;;;;;5034552;28;20038;-60
2022/05/23 05:39:34;;;;;;;13.57;3.45;;;;;;;;;;5019161;28;20041;-60
2022/05/23 05:42:17;;;;;;;4.53;3.13;;;;;;;;;;5043933;28;20085;-59
2022/05/23 05:44:50;;;;;;;3.30;2.65;;;;;;;;;;5030646;28;20048;-60
2022/05/23 05:47:38;;;;;;;6.40;2.92;;;;;;;;;;5026617;28;20149;-60
2022/05/23 05:50:32;;;;;;;5.40;3.03;;;;;;;;;;5010286;28;20026;-59
2022/05/23 05:53:25;;;;;;;7.97;3.35;;;;;;;;;;5026903;28;20038;-59
2022/05/23 05:59:11;;;;;;;4.30;2.75;;;;;;;;;;5025279;28;20114;-60
2022/05/23 06:02:12;;;;;;;4.35;3.40;;;;;;;;;;5024203;28;20034;-60
2022/05/23 06:04:45;;;;;;;6.50;3.63;;;;;;;;;;5008342;28;20038;-59
2022/05/23 06:16:34;;;;;;;6.82;4.03;;;;;;;;;;5024982;28;20034;-60
2022/05/23 06:19:52;;;;;;;7.25;3.78;;;;;;;;;;5041124;28;20098;-60
2022/05/23 06:25:23;;;;;;;12.05;4.07;;;;;;;;;;5047206;28;20044;-60
2022/05/23 06:27:59;;;;;;;4.63;3.90;;;;;;;;;;5041090;28;20037;-60
2022/05/23 06:30:42;;;;;;;6.20;3.72;;;;;;;;;;5046841;28;20028;-60
2022/05/23 06:33:29;;;;;;;3.58;3.20;;;;;;;;;;5046861;28;20029;-60
2022/05/23 06:36:12;;;;;;;13.48;4.72;;;;;;;;;;5048681;28;20035;-60
2022/05/23 06:39:25;;;;;;;4.55;3.58;;;;;;;;;;4998763;28;20105;-60
2022/05/23 06:44:55;;;;;;;5.47;3.33;;;;;;;;;;5039535;28;20056;-59
2022/05/23 06:50:53;;;;;;;4.13;3.53;;;;;;;;;;5023208;28;20025;-60
2022/05/23 06:53:41;;;;;;;7.07;3.53;;;;;;;;;;5023374;28;20038;-59
2022/05/23 06:56:28;;;;;;;8.65;3.38;;;;;;;;;;5025530;28;20032;-60
2022/05/23 06:59:07;;;;;;;5.28;3.80;;;;;;;;;;5025619;28;20044;-60
2022/05/23 07:13:32;;;;;;;;;;;;;;;;;;;;;
2022/05/23 07:16:19;;;;;;;6.00;3.42;;;;;;;;;;4949347;29;20059;-60
2022/05/23 07:18:57;;;;;;;10.80;4.03;;;;;;;;;;4947778;29;20040;-60
2022/05/23 07:21:59;;;;;;;6.43;2.88;;;;;;;;;;5018578;28;20542;-59
2022/05/23 07:24:34;;;;;;;4.65;2.97;;;;;;;;;;5031960;28;20042;-59
2022/05/23 07:30:36;;;;;;;8.05;3.67;;;;;;;;;;4989062;28;20046;-60
2022/05/23 07:33:29;;;;;;;6.35;3.42;;;;;;;;;;5008680;28;20458;-59
2022/05/23 07:39:08;;;;;;;10.40;3.70;;;;;;;;;;5026620;28;20036;-60
2022/05/23 07:41:36;;;;;;;3.78;2.58;;;;;;;;;;5021443;28;20022;-59
2022/05/23 07:44:25;;;;;;;4.97;3.05;;;;;;;;;;5014875;28;20416;-59
2022/05/23 07:47:06;;;;;;;3.80;2.95;;;;;;;;;;5014303;28;20033;-59
2022/05/23 07:49:51;;;;;;;4.63;3.15;;;;;;;;;;4994649;28;20026;-59
2022/05/23 07:52:26;;;;;;;4.00;2.97;;;;;;;;;;5011308;28;20034;-59
2022/05/23 08:01:35;;;;;;;3.35;2.35;;;;;;;;;;4953714;29;20039;-58
2022/05/23 08:04:21;;;;;;;4.13;3.03;;;;;;;;;;4938098;29;20591;-58
2022/05/23 08:07:09;;;;;;;4.30;2.65;;;;;;;;;;4952748;29;20075;-60
2022/05/23 08:09:48;;;;;;;5.05;2.50;;;;;;;;;;4982067;28;20467;-60
2022/05/23 08:12:30;;;;;;;5.35;3.47;;;;;;;;;;5028162;28;20030;-60
2022/05/23 08:15:33;;;;;;;2.83;2.20;;;;;;;;;;5014533;28;20466;-60
2022/05/23 08:21:29;;;;;;;4.50;2.97;;;;;;;;;;4997880;28;20030;-60
2022/05/23 08:29:55;;;;;;;;;;;;;;;;;;;;;
2022/05/23 08:32:53;;;;;;;5.95;3.45;;;;;;;;;;5029945;28;20044;-59
2022/05/23 08:35:21;;;;;;;3.33;2.60;;;;;;;;;;5032582;28;20042;-60
2022/05/23 08:38:20;;;;;;;6.43;3.55;;;;;;;;;;5016367;28;20037;-60
2022/05/23 08:41:16;;;;;;;7.10;2.97;;;;;;;;;;4994754;28;20507;-60
2022/05/23 08:43:50;;;;;;;5.63;2.75;;;;;;;;;;5020410;28;20022;-60
2022/05/23 08:46:28;;;;;;;9.02;3.30;;;;;;;;;;5039272;28;20053;-60
2022/05/23 08:49:21;;;;;;;3.45;2.97;;;;;;;;;;5043428;28;20140;-59
2022/05/23 08:52:04;;;;;;;5.28;3.20;;;;;;;;;;5075294;28;20109;-59
2022/05/23 09:00:43;;;;;;;4.28;3.13;;;;;;;;;;5042342;28;20040;-58
2022/05/23 09:03:35;;;;;;;8.13;3.08;;;;;;;;;;5043273;28;20032;-58
2022/05/23 09:06:11;;;;;;;5.10;2.97;;;;;;;;;;5043808;28;20085;-58
2022/05/23 09:09:06;;;;;;;4.45;3.30;;;;;;;;;;5042227;28;20028;-58
2022/05/23 09:18:03;;;;;;;5.10;3.33;;;;;;;;;;5028666;28;20065;-58
2022/05/23 09:21:06;;;;;;;4.15;2.70;;;;;;;;;;5009298;28;20101;-58
2022/05/23 09:24:21;;;;;;;;;;;;;;;;;;;;;
2022/05/23 09:26:56;;;;;;;4.95;2.75;;;;;;;;;;5000668;28;20156;-58
2022/05/23 09:29:26;;;;;;;4.32;3.08;;;;;;;;;;4995714;28;20080;-58
2022/05/23 09:32:14;;;;;;;8.27;3.37;;;;;;;;;;5010789;28;20057;-58
2022/05/23 09:35:24;;;;;;;4.60;3.50;;;;;;;;;;5027985;28;20269;-58
2022/05/23 09:38:09;;;;;;;6.43;3.00;;;;;;;;;;5000714;28;20034;-58
2022/05/23 09:41:07;;;;;;;2.63;2.28;;;;;;;;;;5028213;28;20026;-58
2022/05/23 09:50:16;;;;;;;3.90;2.90;;;;;;;;;;4968014;29;20123;-58
2022/05/23 09:52:59;;;;;;;3.25;2.90;;;;;;;;;;4950772;29;20023;-58
2022/05/23 09:55:53;;;;;;;3.85;3.38;;;;;;;;;;4966101;29;20047;-58
2022/05/23 09:58:54;;;;;;;;;;;;;;;;;;;;;
2022/05/23 10:01:42;;;;;;;4.25;3.33;;;;;;;;;;4929355;29;20068;-58
2022/05/23 10:04:36;;;;;;;5.43;4.03;;;;;;;;;;4929850;29;20040;-58
2022/05/23 10:07:28;;;;;;;3.72;2.95;;;;;;;;;;4927590;29;20040;-58
2022/05/23 10:10:02;;;;;;;4.65;3.60;;;;;;;;;;4910567;29;20099;-58
2022/05/23 10:15:32;;;;;;;5.45;4.03;;;;;;;;;;4987024;28;20041;-58
2022/05/23 10:18:20;;;;;;;7.22;3.70;;;;;;;;;;4987383;28;20493;-58
2022/05/23 10:21:06;;;;;;;6.80;3.95;;;;;;;;;;4987860;28;20095;-59
2022/05/23 10:23:56;;;;;;;6.65;3.95;;;;;;;;;;4976381;28;20129;-59
2022/05/23 10:26:45;;;;;;;4.47;3.00;;;;;;;;;;4983316;28;20043;-58
2022/05/23 10:29:28;;;;;;;4.93;3.67;;;;;;;;;;4976982;28;20066;-59
2022/05/23 10:32:30;;;;;;;;;;;;;;;;;;;;;
2022/05/23 10:35:02;;;;;;;4.75;3.60;;;;;;;;;;5012469;28;20064;-59
2022/05/23 10:37:42;;;;;;;3.75;3.28;;;;;;;;;;5047657;28;20056;-59
2022/05/23 10:43:06;;;;;;;4.55;2.92;;;;;;;;;;5035702;28;20097;-59
2022/05/23 10:45:56;;;;;;;4.97;3.20;;;;;;;;;;5033154;28;20037;-60
2022/05/23 10:48:57;;;;;;;4.15;2.80;;;;;;;;;;5015596;28;20026;-60
2022/05/23 10:51:56;;;;;;;3.67;2.45;;;;;;;;;;5036298;28;20029;-60
2022/05/23 10:54:49;;;;;;;6.53;3.40;;;;;;;;;;5017249;28;20109;-60
2022/05/23 10:57:42;;;;;;;6.30;3.17;;;;;;;;;;5013491;28;20475;-60
2022/05/23 11:00:55;;;;;;;6.57;3.25;;;;;;;;;;5017317;28;20513;-60
2022/05/23 11:03:44;;;;;;;4.88;3.20;;;;;;;;;;5004506;28;20411;-59
2022/05/23 11:06:45;;;;;;;;;;;;;;;;;;;;;
2022/05/23 11:09:42;;;;;;;5.07;3.25;;;;;;;;;;5036163;28;20125;-60
2022/05/23 11:12:33;;;;;;;6.05;2.90;;;;;;;;;;5035634;28;20513;-60
2022/05/23 11:15:40;;;;;;;5.43;3.28;;;;;;;;;;5035459;28;20039;-57
2022/05/23 11:21:38;;;;;;;6.97;3.38;;;;;;;;;;5035070;28;20361;-59
2022/05/23 11:24:25;;;;;;;3.80;3.25;;;;;;;;;;5034992;28;20058;-59
2022/05/23 11:35:33;;;;;;;4.80;3.88;;;;;;;;;;5034444;28;20481;-59
2022/05/23 11:38:28;;;;;;;6.13;3.92;;;;;;;;;;5000135;28;20479;-59
2022/05/23 11:41:13;;;;;;;5.30;4.25;;;;;;;;;;5034102;28;20042;-59
2022/05/23 11:44:06;;;;;;;6.95;4.28;;;;;;;;;;5034059;28;20104;-59
2022/05/23 11:46:54;;;;;;;5.82;2.88;;;;;;;;;;5049700;28;20065;-59
2022/05/23 11:49:44;;;;;;;4.10;2.70;;;;;;;;;;5048614;28;20488;-60
2022/05/23 11:52:25;;;;;;;7.65;3.42;;;;;;;;;;5034268;28;20044;-59
2022/05/23 11:58:20;;;;;;;5.05;2.42;;;;;;;;;;4972702;28;20271;-60
2022/05/23 12:01:10;;;;;;;3.47;1.67;;;;;;;;;;4973449;28;20573;-60
2022/05/23 12:04:03;;;;;;;3.50;2.05;;;;;;;;;;4974019;28;20189;-60
2022/05/23 12:06:50;;;;;;;9.95;2.90;;;;;;;;;;4972915;28;20134;-60
2022/05/23 12:09:31;;;;;;;2.15;1.17;;;;;;;;;;5023617;28;20022;-60
2022/05/23 12:12:32;;;;;;;;;;;;;;;;;;;;;
2022/05/23 12:15:17;;;;;;;5.60;1.75;;;;;;;;;;5015881;28;20501;-60
2022/05/23 12:18:03;;;;;;;3.75;2.17;;;;;;;;;;5052246;28;20040;-58
2022/05/23 12:21:27;;;;;;;;;;;;;;;;;;;;;
2022/05/23 12:24:19;;;;;;;6.47;2.65;;;;;;;;;;4995946;28;20402;-60
2022/05/23 12:27:11;;;;;;;4.63;2.00;;;;;;;;;;5037721;28;20036;-57
2022/05/23 12:29:59;;;;;;;5.13;1.60;;;;;;;;;;5037616;28;20103;-58
2022/05/23 12:32:47;;;;;;;2.88;1.30;;;;;;;;;;5051367;28;20041;-58
2022/05/23 12:41:50;;;;;;;;;;;;;;;;;;;;;
2022/05/23 12:44:38;;;;;;;6.65;2.00;;;;;;;;;;5037500;28;20116;-59
2022/05/23 12:47:32;;;;;;;4.70;2.20;;;;;;;;;;5037822;28;20032;-58
2022/05/23 12:53:30;;;;;;;2.72;1.42;;;;;;;;;;4990248;28;20031;-58
2022/05/23 12:56:28;;;;;;;3.42;1.70;;;;;;;;;;5038411;28;20044;-59
2022/05/23 12:59:15;;;;;;;3.28;1.98;;;;;;;;;;5035734;28;20474;-59
2022/05/23 13:07:48;;;;;;;4.72;2.20;;;;;;;;;;5021469;28;20115;-60
2022/05/23 13:10:38;;;;;;;6.72;2.22;;;;;;;;;;5023900;28;20558;-60
2022/05/23 13:13:41;;;;;;;7.70;2.55;;;;;;;;;;5035337;28;20021;-60
2022/05/23 13:28:06;;;;;;;9.85;1.75;;;;;;;;;;5024138;28;20606;-59
2022/05/23 13:31:15;;;;;;;4.22;1.80;;;;;;;;;;5026167;28;20475;-59
2022/05/23 13:33:52;;;;;;;6.40;2.08;;;;;;;;;;5054591;28;20123;-59
2022/05/23 13:36:25;;;;;;;3.53;1.92;;;;;;;;;;5038127;28;20069;-59
2022/05/23 13:45:32;;;;;;;5.47;2.03;;;;;;;;;;5064540;28;20087;-59
2022/05/23 13:48:27;;;;;;;4.60;1.80;;;;;;;;;;5065581;28;20082;-59
2022/05/23 13:51:25;;;;;;;;;;;;;;;;;;;;;
2022/05/23 13:54:04;;;;;;;3.20;1.23;;;;;;;;;;5068166;28;20068;-59
2022/05/23 13:56:42;;;;;;;4.22;2.42;;;;;;;;;;5067169;28;20029;-59
2022/05/23 13:59:22;;;;;;;2.58;1.50;;;;;;;;;;5066707;28;20021;-59
2022/05/23 14:02:01;;;;;;;4.60;1.85;;;;;;;;;;5044261;28;20064;-59
2022/05/23 14:04:47;;;;;;;5.85;2.42;;;;;;;;;;5048863;28;20037;-59
2022/05/23 14:07:49;;;;;;;11.50;2.22;;;;;;;;;;5048218;28;20117;-59
2022/05/23 14:10:32;;;;;;;5.57;1.67;;;;;;;;;;5004477;28;20053;-59
2022/05/23 14:13:08;;;;;;;3.08;1.80;;;;;;;;;;5053264;28;20045;-59
2022/05/23 14:18:43;;;;;;;3.85;2.00;;;;;;;;;;5055768;28;20059;-59
2022/05/23 14:24:33;;;;;;;6.72;1.73;;;;;;;;;;5062167;28;20101;-59
2022/05/23 14:27:18;;;;;;;4.05;1.90;;;;;;;;;;5063028;28;20024;-59
2022/05/23 14:29:56;;;;;;;2.92;1.63;;;;;;;;;;5062686;28;20048;-59
2022/05/23 14:32:28;;;;;;;2.38;1.17;;;;;;;;;;5044209;28;20052;-60
2022/05/23 14:35:12;;;;;;;3.25;1.42;;;;;;;;;;5043760;28;20042;-60
2022/05/23 14:38:05;;;;;;;4.30;1.98;;;;;;;;;;5072074;28;20115;-60
2022/05/23 14:40:46;;;;;;;7.90;1.95;;;;;;;;;;5036473;28;20044;-60
2022/05/23 14:43:27;;;;;;;3.30;1.65;;;;;;;;;;5043214;28;20051;-60
2022/05/23 14:46:15;;;;;;;2.97;1.42;;;;;;;;;;5026278;28;20055;-60
2022/05/23 14:49:05;;;;;;;3.95;1.35;;;;;;;;;;5075945;28;20040;-59
2022/05/23 14:51:34;;;;;;;4.30;1.88;;;;;;;;;;5072002;28;20029;-60
2022/05/23 15:06:49;;;;;;;8.40;1.45;;;;;;;;;;5021690;28;20046;-60
2022/05/23 15:09:52;;;;;;;6.82;1.88;;;;;;;;;;5021750;28;20026;-60
2022/05/23 15:12:57;;;;;;;5.28;2.00;;;;;;;;;;5021483;28;20458;-60
2022/05/23 15:15:49;;;;;;;;;;;;;;;;;;;;;
2022/05/23 15:18:25;;;;;;;3.33;1.83;;;;;;;;;;5043846;28;20112;-59
2022/05/23 15:23:43;;;;;;;5.45;1.98;;;;;;;;;;5043875;28;20068;-59
2022/05/23 15:26:28;;;;;;;4.70;1.55;;;;;;;;;;5043763;28;20081;-59
2022/05/23 15:29:14;;;;;;;3.00;1.48;;;;;;;;;;5044976;28;20022;-58
2022/05/23 15:38:11;;;;;;;4.13;1.92;;;;;;;;;;5024391;28;20049;-60
2022/05/23 15:41:01;;;;;;;4.50;1.42;;;;;;;;;;5007723;28;20065;-60
2022/05/23 15:43:29;;;;;;;3.80;2.25;;;;;;;;;;5024604;28;20038;-60
2022/05/23 15:46:19;;;;;;;5.05;1.85;;;;;;;;;;5008488;28;20034;-60
2022/05/23 15:52:34;;;;;;;6.43;1.95;;;;;;;;;;4965352;29;20038;-60
2022/05/23 15:55:29;;;;;;;4.28;1.83;;;;;;;;;;4986276;28;20065;-60
2022/05/23 15:58:14;;;;;;;;;;;;;;;;;;;;;
2022/05/23 16:03:48;;;;;;;4.78;2.20;;;;;;;;;;5023977;28;20053;-60
2022/05/23 16:06:49;;;;;;;5.72;2.50;;;;;;;;;;5018934;28;20030;-59
2022/05/23 16:09:25;;;;;;;4.90;2.22;;;;;;;;;;5012264;28;20472;-59
2022/05/23 16:11:53;;;;;;;5.72;1.98;;;;;;;;;;5022508;28;20496;-59
2022/05/23 16:14:28;;;;;;;4.40;2.33;;;;;;;;;;5005556;28;20061;-59
2022/05/23 16:19:56;;;;;;;7.95;2.38;;;;;;;;;;5010451;28;20036;-59
2022/05/23 16:22:42;;;;;;;5.83;2.93;;;;;;;;;;5024885;28;20028;-59
2022/05/23 16:25:24;;;;;;;7.15;2.78;;;;;;;;;;5023473;28;20404;-59
2022/05/23 16:28:28;;;;;;;3.78;2.08;;;;;;;;;;5018408;28;20353;-59
2022/05/23 16:37:17;;;;;;;8.55;2.10;;;;;;;;;;4928624;29;20469;-59
2022/05/23 16:43:34;;;;;;;;;;;;;;;;;;;;;
2022/05/23 16:46:47;;;;;;;4.78;2.55;;;;;;;;;;5015827;28;20064;-59
2022/05/23 16:49:17;;;;;;;3.35;2.03;;;;;;;;;;4979729;28;20113;-60
2022/05/23 16:52:06;;;;;;;3.97;2.50;;;;;;;;;;4996698;28;20034;-59
2022/05/23 16:58:19;;;;;;;3.67;1.70;;;;;;;;;;5014334;28;20033;-59
2022/05/23 17:00:52;;;;;;;5.43;2.15;;;;;;;;;;5014703;28;20022;-59
2022/05/23 17:06:30;;;;;;;3.78;2.63;;;;;;;;;;5017898;28;20484;-59
2022/05/23 17:09:16;;;;;;;6.70;2.30;;;;;;;;;;5018499;28;20349;-59
2022/05/23 17:12:20;;;;;;;3.67;1.73;;;;;;;;;;5018969;28;20041;-59
2022/05/23 17:15:10;;;;;;;5.10;2.75;;;;;;;;;;5018531;28;20041;-59
2022/05/23 17:17:46;;;;;;;9.35;3.10;;;;;;;;;;5032793;28;20552;-59
2022/05/23 17:20:48;;;;;;;3.25;1.48;;;;;;;;;;5033854;28;20056;-59
2022/05/23 17:23:44;;;;;;;;;;;;;;;;;;;;;
2022/05/23 17:26:31;;;;;;;7.32;2.40;;;;;;;;;;5017491;28;20089;-59
2022/05/23 17:29:06;;;;;;;7.20;2.13;;;;;;;;;;5020906;28;20117;-59
2022/05/23 17:31:57;;;;;;;5.25;2.90;;;;;;;;;;5017142;28;20082;-59
2022/05/23 17:34:58;;;;;;;6.20;2.28;;;;;;;;;;5016736;28;20487;-59
2022/05/23 17:37:45;;;;;;;5.07;2.22;;;;;;;;;;5012784;28;20050;-59
2022/05/23 17:40:23;;;;;;;6.07;2.55;;;;;;;;;;5014133;28;20042;-59
2022/05/23 17:42:54;;;;;;;7.22;2.55;;;;;;;;;;4983965;28;20033;-59
2022/05/23 17:45:35;;;;;;;6.25;1.70;;;;;;;;;;5016699;28;20040;-59
2022/05/23 17:48:16;;;;;;;3.15;1.95;;;;;;;;;;5017314;28;20053;-59
2022/05/23 17:51:28;;;;;;;7.53;1.83;;;;;;;;;;5016696;28;20073;-59
2022/05/23 17:57:06;;;;;;;3.90;1.90;;;;;;;;;;5011501;28;20030;-59
2022/05/23 18:00:18;;;;;;;;;;;;;;;;;;;;;
2022/05/23 18:03:09;;;;;;;4.72;2.25;;;;;;;;;;5007793;28;20036;-59
2022/05/23 18:05:54;;;;;;;5.50;2.05;;;;;;;;;;4999045;28;20044;-58
2022/05/23 18:08:43;;;;;;;;;;;;;;;;;;;;;
2022/05/23 18:20:52;;;;;;;3.63;2.20;;;;;;;;;;4974998;28;20034;-60
2022/05/23 18:26:31;;;;;;;5.85;2.45;;;;;;;;;;4987258;28;20046;-60
2022/05/23 18:32:20;;;;;;;5.63;2.45;;;;;;;;;;5023069;28;20554;-60
2022/05/23 18:35:17;;;;;;;7.50;3.22;;;;;;;;;;5018378;28;20038;-60
2022/05/23 18:37:55;;;;;;;5.50;1.92;;;;;;;;;;5035709;28;20104;-59
2022/05/23 18:53:18;;;;;;;5.43;2.58;;;;;;;;;;5031300;28;20112;-59
2022/05/23 18:56:04;;;;;;;5.55;2.17;;;;;;;;;;5017648;28;20037;-60
2022/05/23 18:58:55;;;;;;;;;;;;;;;;;;;;;
2022/05/23 19:01:34;;;;;;;2.67;1.75;;;;;;;;;;5032798;28;20486;-60
2022/05/23 19:07:46;;;;;;;5.75;2.17;;;;;;;;;;5006430;28;20037;-58
2022/05/23 19:10:40;;;;;;;6.97;2.72;;;;;;;;;;5017216;28;20053;-61
2022/05/23 19:13:13;;;;;;;4.22;2.13;;;;;;;;;;4927890;29;20253;-59
2022/05/23 19:16:05;;;;;;;4.47;2.58;;;;;;;;;;5018815;28;20029;-59
2022/05/23 19:19:01;;;;;;;;;;;;;;;;;;;;;
2022/05/23 19:21:32;;;;;;;4.60;2.78;;;;;;;;;;5035881;28;20426;-59
2022/05/23 19:24:07;;;;;;;6.35;2.50;;;;;;;;;;5035827;28;20363;-60
2022/05/23 19:26:49;;;;;;;3.38;2.28;;;;;;;;;;5035126;28;20029;-60
2022/05/23 19:35:33;;;;;;;3.42;2.28;;;;;;;;;;4973790;28;20038;-60
2022/05/23 19:38:40;;;;;;;2.88;1.60;;;;;;;;;;4968684;28;20098;-60
2022/05/23 19:41:25;;;;;;;5.75;1.58;;;;;;;;;;5007218;28;20033;-60
2022/05/23 19:44:12;;;;;;;3.30;1.90;;;;;;;;;;5038881;28;20479;-60
2022/05/23 19:47:30;;;;;;;;;;;;;;;;;;;;;
2022/05/23 19:50:31;;;;;;;;;;;;;;;;;;;;;
2022/05/23 19:53:17;;;;;;;2.60;1.40;;;;;;;;;;4946372;28;20034;-59
2022/05/23 19:56:08;;;;;;;3.88;1.83;;;;;;;;;;5030257;28;20041;-59
2022/05/23 19:59:55;;;;;;;;;;;;;;;;;;;;;
2022/05/23 20:07:42;;;;;;;4.93;1.38;;;;;;;;;;5034119;28;20440;-59
2022/05/23 20:10:20;;;;;;;3.17;1.40;;;;;;;;;;5013224;28;20096;-60
2022/05/23 20:12:48;;;;;;;3.08;1.67;;;;;;;;;;5016627;28;20467;-60
2022/05/23 20:15:24;;;;;;;5.00;1.95;;;;;;;;;;5016533;28;20037;-59
2022/05/23 20:24:17;;;;;;;2.28;1.42;;;;;;;;;;4981381;28;20037;-60
2022/05/23 20:26:50;;;;;;;3.42;1.45;;;;;;;;;;5033494;28;20038;-60
2022/05/23 20:32:43;;;;;;;;;;;;;;;;;;;;;
2022/05/23 20:35:31;;;;;;;9.18;1.60;;;;;;;;;;5034317;28;20032;-59
2022/05/23 20:47:03;;;;;;;5.10;1.92;;;;;;;;;;4963312;28;20062;-59
2022/05/23 20:49:40;;;;;;;2.33;1.40;;;;;;;;;;5004437;28;20561;-59
2022/05/23 20:52:42;;;;;;;2.92;1.92;;;;;;;;;;5020595;28;20527;-60
2022/05/23 20:58:31;;;;;;;4.03;1.92;;;;;;;;;;5037353;28;20056;-60
2022/05/23 21:01:01;;;;;;;3.88;2.20;;;;;;;;;;5022525;28;20025;-59
2022/05/23 21:03:33;;;;;;;;;;;;;;;;;;5032299;28;20116;-59
2022/05/23 21:06:24;;;;;;;1.88;1.00;;;;;;;;;;5048207;28;19909;-59
2022/05/23 21:09:23;;;;;;;3.67;2.03;;;;;;;;;;5048582;28;20574;-59
2022/05/23 21:11:56;;;;;;;3.33;1.45;;;;;;;;;;5044596;28;20519;-59
2022/05/23 21:27:09;;;;;;;4.20;1.10;;;;;;;;;;4968653;29;20439;-59
2022/05/23 21:29:48;;;;;;;2.45;1.42;;;;;;;;;;4946434;28;20042;-60
2022/05/23 21:35:38;;;;;;;2.88;1.40;;;;;;;;;;5034820;28;20036;-59
2022/05/23 21:38:17;;;;;;;2.85;1.67;;;;;;;;;;5047120;28;20042;-59
2022/05/23 21:47:21;;;;;;;3.17;1.38;;;;;;;;;;5048702;28;20100;-59
2022/05/23 21:49:56;;;;;;;3.58;1.77;;;;;;;;;;5026778;28;20089;-60
2022/05/23 21:52:23;;;;;;;4.22;1.90;;;;;;;;;;5029774;28;20042;-59
2022/05/23 21:58:33;;;;;;;3.00;1.48;;;;;;;;;;4998026;28;20337;-60
2022/05/23 22:03:54;;;;;;;3.35;1.90;;;;;;;;;;5007628;28;20049;-59
2022/05/23 22:06:32;;;;;;;3.20;1.92;;;;;;;;;;5007240;28;20082;-59
2022/05/23 22:09:20;;;;;;;6.30;2.13;;;;;;;;;;5006453;28;20034;-60
2022/05/23 22:11:52;;;;;;;2.67;1.67;;;;;;;;;;5006714;28;20057;-59
2022/05/23 22:14:22;;;;;;;2.67;1.50;;;;;;;;;;5006411;28;20038;-59
2022/05/23 22:17:22;;;;;;;;;;;;;;;;;;;;;
2022/05/23 22:19:49;;;;;;;;;;;;;;;;;;5006880;28;20128;-60
2022/05/23 22:22:40;;;;;;;2.85;1.48;;;;;;;;;;5006978;28;19909;-59
2022/05/23 22:25:42;;;;;;;5.78;1.73;;;;;;;;;;4960433;28;20081;-60
2022/05/23 22:31:36;;;;;;;2.72;1.42;;;;;;;;;;5007582;28;20037;-60
2022/05/23 22:34:27;;;;;;;3.80;1.37;;;;;;;;;;5047561;28;20034;-60
2022/05/23 22:40:49;;;;;;;;;;;;;;;;;;;;;
2022/05/23 22:43:37;;;;;;;3.20;1.60;;;;;;;;;;5005930;28;20058;-59
2022/05/23 22:49:24;;;;;;;3.25;2.15;;;;;;;;;;5005047;28;20040;-60
2022/05/23 22:52:03;;;;;;;3.28;1.42;;;;;;;;;;4989098;28;20069;-60
2022/05/23 22:54:45;;;;;;;3.95;1.35;;;;;;;;;;5004971;28;20131;-59
2022/05/23 22:57:36;;;;;;;5.05;1.30;;;;;;;;;;5004622;28;20103;-60
2022/05/23 23:00:07;;;;;;;2.60;1.42;;;;;;;;;;5005247;28;20050;-60
2022/05/23 23:05:21;;;;;;;8.02;1.70;;;;;;;;;;5046706;28;20052;-59
2022/05/23 23:08:10;;;;;;;2.83;1.35;;;;;;;;;;5047155;28;20056;-60
2022/05/23 23:13:50;;;;;;;2.67;1.75;;;;;;;;;;5047349;28;20028;-59
2022/05/23 23:16:46;;;;;;;4.68;1.58;;;;;;;;;;5047725;28;20029;-59
2022/05/23 23:19:21;;;;;;;4.97;1.20;;;;;;;;;;5005842;28;20042;-59
2022/05/23 23:24:36;;;;;;;2.53;1.45;;;;;;;;;;5006344;28;20050;-59
2022/05/23 23:27:26;;;;;;;5.57;1.63;;;;;;;;;;5005593;28;20190;-59
2022/05/23 23:39:36;;;;;;;;;;;;;;;;;;;;;
2022/05/23 23:42:37;;;;;;;2.67;1.38;;;;;;;;;;5035183;28;20056;-60